Time;durP1;ratioP1;P1;durP2;ratioP2;P2;SDS_P1;SDS_P2;PMS_P1;PMS_P2;Temp;Humidity;BMP_temperature;BMP_pressure;BME280_temperature;BME280_humidity;BME280_pressure;Samples;Min_cycle;Max_cycle;Signal;HPM_P1;HPM_P2
2022/03/12 00:02:07;;;;;;;;;;;;;;;-4.04;40.84;102036.83;1364736;89;20263;-86
2022/03/12 00:04:34;;;;;;;;;;;;;;;-4.06;40.94;102035.98;1360591;90;20247;-85
2022/03/12 00:07:09;;;;;;;;;;;;;;;-4.03;41.75;102033.80;1397432;88;20261;-87
2022/03/12 00:09:29;;;;;;;;;;;;;;;-4.03;41.29;102025.59;1395686;88;20231;-86
2022/03/12 00:12:00;;;;;;;;;;;;;;;-4.03;40.90;102028.62;1396728;87;20276;-85
2022/03/12 00:14:28;;;;;;;;;;;;;;;-4.02;41.26;102026.48;1390160;88;20262;-85
2022/03/12 00:16:54;;;;;;;;;;;;;;;-4.03;41.61;102028.62;1382519;89;20844;-85
2022/03/12 00:19:21;;;;;;;;;;;;;;;-4.04;41.37;102030.36;1382367;89;20329;-86
2022/03/12 00:21:49;;;;;;;;;;;;;;;-4.03;41.39;102027.33;1382129;89;20381;-87
2022/03/12 00:24:17;;;;;;;;;;;;;;;-4.05;41.28;102032.54;1392439;88;20351;-88
2022/03/12 00:26:46;;;;;;;;;;;;;;;-4.11;41.26;102027.43;1391663;88;20378;-87
2022/03/12 00:29:14;;;;;;;;;;;;;;;-4.09;40.27;102043.33;1389920;88;20836;-86
2022/03/12 00:31:45;;;;;;;;;;;;;;;-4.08;40.10;102042.91;1383214;88;21242;-87
2022/03/12 00:34:13;;;;;;;;;;;;;;;-4.11;40.80;102042.50;1365201;89;20314;-86
2022/03/12 00:36:40;;;;;;;;;;;;;;;-4.15;40.97;102048.56;1391139;88;20314;-86
2022/03/12 00:39:09;;;;;;;;;;;;;;;-4.16;41.49;102040.83;1390153;88;20247;-87
2022/03/12 00:41:36;;;;;;;;;;;;;;;-4.27;42.41;102049.97;1390572;88;20247;-88
2022/03/12 00:44:03;;;;;;;;;;;;;;;-4.37;43.18;102047.06;1384951;89;20247;-93
2022/03/12 00:46:30;;;;;;;;;;;;;;;-4.45;42.61;102045.83;1392891;88;20277;-92
2022/03/12 00:48:57;;;;;;;;;;;;;;;-4.47;43.42;102048.84;1391924;89;20247;-92
2022/03/12 00:51:24;;;;;;;;;;;;;;;-4.50;43.58;102048.88;1391000;89;20300;-92
2022/03/12 00:53:51;;;;;;;;;;;;;;;-4.54;42.27;102053.21;1372493;89;21179;-93
2022/03/12 00:56:18;;;;;;;;;;;;;;;-4.55;41.42;102057.09;1392178;89;20262;-93
2022/03/12 00:58:46;;;;;;;;;;;;;;;-4.60;42.38;102057.14;1391279;89;20320;-90
2022/03/12 01:01:14;;;;;;;;;;;;;;;-4.62;41.94;102060.59;1391466;89;20336;-92
2022/03/12 01:03:41;;;;;;;;;;;;;;;-4.67;41.36;102062.35;1392712;88;20305;-92
2022/03/12 01:06:08;;;;;;;;;;;;;;;-4.79;43.32;102055.10;1395351;88;20825;-91
2022/03/12 01:08:37;;;;;;;;;;;;;;;-4.90;44.66;102057.33;1399118;87;20260;-89
2022/03/12 01:11:07;;;;;;;;;;;;;;;-4.96;44.73;102054.35;1402705;87;20373;-92
2022/03/12 01:13:34;;;;;;;;;;;;;;;-5.03;45.33;102051.40;1403860;87;20239;-92
2022/03/12 01:16:09;;;;;;;;;;;;;;;-5.14;45.69;102051.89;1384274;89;20246;-92
2022/03/12 01:18:38;;;;;;;;;;;;;;;-5.20;45.39;102046.31;1403239;88;20323;-91
2022/03/12 01:21:10;;;;;;;;;;;;;;;-5.28;46.35;102048.08;1403181;87;20238;-92
2022/03/12 01:23:37;;;;;;;;;;;;;;;-5.40;46.16;102052.02;1404960;88;20246;-93
2022/03/12 01:26:04;;;;;;;;;;;;;;;-5.56;46.69;102064.09;1404550;87;20290;-93
2022/03/12 01:28:31;;;;;;;;;;;;;;;-5.59;46.88;102068.83;1404055;88;20305;-92
2022/03/12 01:30:59;;;;;;;;;;;;;;;-5.55;47.29;102066.69;1403767;87;20261;-92
2022/03/12 01:33:26;;;;;;;;;;;;;;;-5.53;46.81;102071.38;1402949;87;20283;-91
2022/03/12 01:35:53;;;;;;;;;;;;;;;-5.52;47.39;102064.09;1403063;88;20253;-91
2022/03/12 01:38:23;;;;;;;;;;;;;;;-5.48;46.77;102063.20;1404168;87;20338;-91
2022/03/12 01:40:52;;;;;;;;;;;;;;;-5.54;47.46;102069.67;1403478;88;20342;-91
2022/03/12 01:43:18;;;;;;;;;;;;;;;-5.58;47.68;102069.27;1385249;89;20350;-87
2022/03/12 01:45:45;;;;;;;;;;;;;;;-5.61;47.75;102064.13;1403829;87;20292;-87
2022/03/12 01:48:13;;;;;;;;;;;;;;;-5.64;48.14;102060.23;1403835;87;20261;-88
2022/03/12 01:50:39;;;;;;;;;;;;;;;-5.75;48.76;102062.88;1403417;88;20223;-88
2022/03/12 01:53:09;;;;;;;;;;;;;;;-5.84;49.09;102065.88;1403171;88;20261;-88
2022/03/12 01:55:39;;;;;;;;;;;;;;;-5.92;49.39;102062.91;1403661;87;20297;-89
2022/03/12 01:58:06;;;;;;;;;;;;;;;-5.91;49.16;102065.90;1403542;87;20246;-88
2022/03/12 02:00:43;;;;;;;;;;;;;;;-5.86;49.57;102068.92;1403495;88;20349;-89
2022/03/12 02:03:11;;;;;;;;;;;;;;;-5.85;49.67;102066.75;1404090;87;21126;-89
2022/03/12 02:05:38;;;;;;;;;;;;;;;-5.80;49.49;102071.48;1397012;87;20787;-90
2022/03/12 02:08:05;;;;;;;;;;;;;;;-5.72;48.78;102067.16;1384861;88;20466;-88
2022/03/12 02:10:36;;;;;;;;;;;;;;;-5.68;49.26;102072.30;1383776;89;20364;-88
2022/03/12 02:13:02;;;;;;;;;;;;;;;-5.67;49.35;102070.56;1384076;89;20842;-87
2022/03/12 02:15:29;;;;;;;;;;;;;;;-5.70;49.49;102062.84;1368500;90;20379;-88
2022/03/12 02:17:56;;;;;;;;;;;;;;;-5.69;48.94;102064.58;1343627;92;20337;-88
2022/03/12 02:20:23;;;;;;;;;;;;;;;-5.64;48.95;102061.97;1339478;92;20343;-88
2022/03/12 02:22:53;;;;;;;;;;;;;;;-5.57;48.15;102053.36;1330449;92;20815;-88
2022/03/12 02:25:30;;;;;;;;;;;;;;;-5.53;49.10;102055.05;1330672;93;20336;-88
2022/03/12 02:27:59;;;;;;;;;;;;;;;-5.51;49.31;102055.47;1317925;94;20828;-92
2022/03/12 02:30:37;;;;;;;;;;;;;;;-5.52;49.00;102061.51;1362262;91;20804;-92
2022/03/12 02:33:02;;;;;;;;;;;;;;;-5.52;47.96;102057.64;1362348;91;20261;-91
2022/03/12 02:35:35;;;;;;;;;;;;;;;-5.49;47.37;102056.34;1362422;91;20290;-92
2022/03/12 02:38:03;;;;;;;;;;;;;;;-5.45;46.63;102051.58;1362409;91;20826;-95
2022/03/12 02:40:32;;;;;;;;;;;;;;;-5.40;47.65;102047.70;1363552;91;20305;-94
2022/03/12 02:43:00;;;;;;;;;;;;;;;-5.36;48.55;102048.10;1361927;91;20373;-89
2022/03/12 02:45:29;;;;;;;;;;;;;;;-5.39;49.03;102049.84;1362632;91;20441;-92
2022/03/12 02:47:56;;;;;;;;;;;;;;;-5.48;49.16;102048.16;1362238;91;20408;-92
2022/03/12 02:50:24;;;;;;;;;;;;;;;-5.54;49.47;102045.61;1345498;91;20343;-90
2022/03/12 02:52:51;;;;;;;;;;;;;;;-5.59;49.17;102040.45;1362077;91;20782;-91
2022/03/12 02:55:21;;;;;;;;;;;;;;;-5.66;49.42;102049.09;1362492;91;20276;-92
2022/03/12 02:57:49;;;;;;;;;;;;;;;-5.72;49.68;102053.83;1362946;90;20283;-89
2022/03/12 03:00:18;;;;;;;;;;;;;;;-5.72;48.95;102042.66;1380689;89;20378;-90
2022/03/12 03:03:05;;;;;;;;;;;;;;;-5.74;48.87;102050.83;1381898;89;20281;-90
2022/03/12 03:05:33;;;;;;;;;;;;;;;-5.70;48.12;102053.81;1377620;88;20385;-90
2022/03/12 03:07:56;;;;;;;;;;;;;;;-5.68;47.31;102053.39;1381714;90;20273;-91
2022/03/12 03:10:34;;;;;;;;;;;;;;;-5.60;47.24;102057.23;1382335;89;20845;-92
2022/03/12 03:13:15;;;;;;;;;;;;;;;-5.61;47.96;102059.38;1382073;89;20310;-90
2022/03/12 03:15:49;;;;;;;;;;;;;;;-5.69;48.96;102055.11;1382410;89;20839;-92
2022/03/12 03:18:19;;;;;;;;;;;;;;;-5.75;49.14;102049.98;1382123;89;21258;-91
2022/03/12 03:20:46;;;;;;;;;;;;;;;-5.78;48.74;102051.27;1381966;89;20370;-90
2022/03/12 03:23:13;;;;;;;;;;;;;;;-5.81;49.70;102057.73;1383236;89;20385;-91
2022/03/12 03:25:40;;;;;;;;;;;;;;;-5.85;48.06;102055.16;1384154;89;21351;-91
2022/03/12 03:28:10;;;;;;;;;;;;;;;-5.88;47.88;102062.89;1382344;89;20399;-91
2022/03/12 03:30:38;;;;;;;;;;;;;;;-5.87;47.74;102062.88;1382576;89;20414;-91
2022/03/12 03:33:11;;;;;;;;;;;;;;;-5.80;47.12;102063.74;1381946;89;20376;-90
2022/03/12 03:35:39;;;;;;;;;;;;;;;-5.77;47.31;102062.45;1363868;91;20273;-91
2022/03/12 03:38:06;;;;;;;;;;;;;;;-5.74;47.45;102061.14;1382400;89;20265;-91
2022/03/12 03:40:33;;;;;;;;;;;;;;;-5.75;48.06;102068.47;1382219;89;20295;-90
2022/03/12 03:43:00;;;;;;;;;;;;;;;-5.78;48.16;102063.28;1382220;89;20288;-88
2022/03/12 03:45:28;;;;;;;;;;;;;;;-5.84;48.65;102060.32;1381942;89;20377;-87
2022/03/12 03:47:56;;;;;;;;;;;;;;;-5.91;48.77;102064.61;1382201;88;20388;-91
2022/03/12 03:50:27;;;;;;;;;;;;;;;-5.96;49.57;102071.52;1381925;89;20370;-86
2022/03/12 03:53:03;;;;;;;;;;;;;;;-5.96;48.60;102070.67;1381607;89;20314;-87
2022/03/12 03:55:30;;;;;;;;;;;;;;;-5.99;49.56;102070.67;1379798;89;20828;-89
2022/03/12 03:57:57;;;;;;;;;;;;;;;-6.08;50.01;102076.70;1382043;88;20929;-90
2022/03/12 04:00:25;;;;;;;;;;;;;;;-6.08;49.43;102083.58;1382440;88;20347;-90
2022/03/12 04:03:01;;;;;;;;;;;;;;;-6.08;50.82;102079.72;1382275;89;20288;-91
2022/03/12 04:05:22;;;;;;;;;;;;;;;-6.12;50.46;102080.16;1381691;89;20370;-91
2022/03/12 04:07:49;;;;;;;;;;;;;;;-6.16;50.48;102081.88;1382872;88;20381;-91
2022/03/12 04:10:16;;;;;;;;;;;;;;;-6.23;52.15;102081.88;1382190;89;20847;-91
2022/03/12 04:12:43;;;;;;;;;;;;;;;-6.29;52.04;102081.88;1382027;89;20415;-91
2022/03/12 04:15:10;;;;;;;;;;;;;;;-6.33;51.96;102077.57;1382061;89;20343;-90
2022/03/12 04:17:37;;;;;;;;;;;;;;;-6.36;52.91;102076.73;1382271;89;20399;-90
2022/03/12 04:20:05;;;;;;;;;;;;;;;-6.38;51.47;102082.30;1381909;89;20370;-90
2022/03/12 04:22:32;;;;;;;;;;;;;;;-6.43;50.52;102080.16;1382259;89;20976;-90
2022/03/12 04:24:59;;;;;;;;;;;;;;;-6.47;50.28;102085.28;1384967;89;20929;-90
2022/03/12 04:27:27;;;;;;;;;;;;;;;-6.48;49.52;102088.73;1381935;89;20384;-91
2022/03/12 04:29:54;;;;;;;;;;;;;;;-6.46;49.19;102087.87;1381893;89;20444;-89
2022/03/12 04:32:21;;;;;;;;;;;;;;;-6.46;49.34;102093.03;1381950;89;20415;-89
2022/03/12 04:34:48;;;;;;;;;;;;;;;-6.47;52.20;102093.02;1382091;89;20414;-90
2022/03/12 04:37:14;;;;;;;;;;;;;;;-6.50;52.63;102095.19;1382517;89;20934;-90
2022/03/12 04:39:41;;;;;;;;;;;;;;;-6.52;54.09;102103.33;1379544;89;20399;-89
2022/03/12 04:42:08;;;;;;;;;;;;;;;-6.54;54.31;102090.87;1363834;90;20446;-89
2022/03/12 04:44:35;;;;;;;;;;;;;;;-6.56;53.79;102098.16;1369787;90;20370;-89
2022/03/12 04:47:02;;;;;;;;;;;;;;;-6.62;53.73;102097.33;1363558;89;20882;-89
2022/03/12 04:49:29;;;;;;;;;;;;;;;-6.62;51.77;102095.15;1363990;90;20276;-93
2022/03/12 04:51:56;;;;;;;;;;;;;;;-6.64;52.26;102104.61;1364655;91;20268;-94
2022/03/12 04:54:26;;;;;;;;;;;;;;;-6.61;51.34;102108.05;1365899;90;20275;-95
2022/03/12 04:56:55;;;;;;;;;;;;;;;-6.58;50.46;102103.33;1365041;91;20314;-94
2022/03/12 04:59:22;;;;;;;;;;;;;;;-6.54;52.01;102102.89;1366333;89;20268;-94
2022/03/12 05:01:48;;;;;;;;;;;;;;;-6.57;53.67;102108.05;1366120;91;20336;-94
2022/03/12 05:04:15;;;;;;;;;;;;;;;-6.61;53.90;102111.05;1365092;91;20276;-94
2022/03/12 05:06:42;;;;;;;;;;;;;;;-6.61;54.13;102103.33;1363657;90;20306;-91
2022/03/12 05:09:09;;;;;;;;;;;;;;;-6.61;55.44;102105.91;1362583;91;20426;-91
2022/03/12 05:11:38;;;;;;;;;;;;;;;-6.58;55.07;102109.77;1354990;91;20363;-94
2022/03/12 05:14:06;;;;;;;;;;;;;;;-6.56;54.39;102106.74;1382998;89;20381;-93
2022/03/12 05:16:35;;;;;;;;;;;;;;;-6.57;53.56;102112.77;1384328;89;20319;-92
2022/03/12 05:19:05;;;;;;;;;;;;;;;-6.53;52.92;102118.37;1384214;89;20778;-92
2022/03/12 05:21:31;;;;;;;;;;;;;;;-6.43;51.86;102114.93;1364633;91;20416;-91
2022/03/12 05:23:58;;;;;;;;;;;;;;;-6.29;51.62;102116.67;1383125;89;20259;-90
2022/03/12 05:26:25;;;;;;;;;;;;;;;-6.20;51.03;102120.53;1382626;89;20258;-91
2022/03/12 05:28:51;;;;;;;;;;;;;;;-6.10;51.58;102118.36;1383638;89;20311;-87
2022/03/12 05:31:18;;;;;;;;;;;;;;;-6.05;51.67;102119.23;1373530;89;20350;-88
2022/03/12 05:33:46;;;;;;;;;;;;;;;-5.98;52.52;102121.40;1364964;90;20784;-92
2022/03/12 05:36:13;;;;;;;;;;;;;;;-5.90;54.01;102124.36;1377506;89;20333;-91
2022/03/12 05:38:40;;;;;;;;;;;;;;;-5.80;53.56;102117.91;1383741;89;20318;-92
2022/03/12 05:41:20;;;;;;;;;;;;;;;-5.69;54.24;102117.02;1381262;89;20269;-91
2022/03/12 05:43:49;;;;;;;;;;;;;;;-5.57;55.05;102121.29;1369868;89;20917;-93
2022/03/12 05:46:17;;;;;;;;;;;;;;;-5.42;54.48;102124.69;1352852;90;20269;-92
2022/03/12 05:49:03;;;;;;;;;;;;;;;-5.24;53.24;102130.67;1373709;88;20275;-92
2022/03/12 05:51:30;;;;;;;;;;;;;;;-5.08;52.86;102125.00;1365296;90;20268;-94
2022/03/12 05:53:58;;;;;;;;;;;;;;;-4.91;51.90;102127.95;1363910;90;20306;-93
2022/03/12 05:56:26;;;;;;;;;;;;;;;-4.83;50.41;102127.48;1364865;90;20775;-92
2022/03/12 05:58:54;;;;;;;;;;;;;;;-4.70;50.29;102127.81;1364324;90;20354;-94
2022/03/12 06:01:21;;;;;;;;;;;;;;;-4.60;49.44;102132.07;1364097;91;20269;-90
2022/03/12 06:03:47;;;;;;;;;;;;;;;-4.52;49.53;102126.84;1364574;91;20849;-90
2022/03/12 06:06:14;;;;;;;;;;;;;;;-4.44;49.10;102131.52;1364549;90;20394;-89
2022/03/12 06:08:41;;;;;;;;;;;;;;;-4.30;49.09;102134.02;1367925;91;20274;-89
2022/03/12 06:11:15;;;;;;;;;;;;;;;-4.18;48.40;102131.77;1365768;89;20797;-90
2022/03/12 06:13:41;;;;;;;;;;;;;;;-4.07;48.59;102130.41;1368562;91;20833;-89
2022/03/12 06:16:08;;;;;;;;;;;;;;;-3.87;48.66;102132.38;1375516;89;20380;-89
2022/03/12 06:18:36;;;;;;;;;;;;;;;-3.60;48.72;102136.42;1364323;91;20871;-89
2022/03/12 06:21:09;;;;;;;;;;;;;;;-3.33;48.54;102134.44;1365673;90;20865;-90
2022/03/12 06:23:36;;;;;;;;;;;;;;;-3.17;47.70;102137.25;1373688;89;20347;-89
2022/03/12 06:26:03;;;;;;;;;;;;;;;-3.08;47.16;102128.09;1371142;91;20766;-90
2022/03/12 06:28:33;;;;;;;;;;;;;;;-2.89;47.03;102129.14;1353480;92;20275;-88
2022/03/12 06:31:06;;;;;;;;;;;;;;;-2.69;46.60;102129.73;1372293;89;20365;-91
2022/03/12 06:33:40;;;;;;;;;;;;;;;-2.57;46.18;102131.28;1373831;91;20279;-90
2022/03/12 06:36:12;;;;;;;;;;;;;;;-2.48;45.23;102126.41;1375274;89;20281;-89
2022/03/12 06:38:39;;;;;;;;;;;;;;;-2.35;45.03;102122.31;1364426;89;20277;-87
2022/03/12 06:41:06;;;;;;;;;;;;;;;-2.13;45.16;102124.55;1375517;90;20288;-86
2022/03/12 06:43:33;;;;;;;;;;;;;;;-1.91;45.55;102122.02;1381406;89;20771;-87
2022/03/12 06:46:14;;;;;;;;;;;;;;;-1.74;44.48;102123.47;1372585;89;20274;-89
2022/03/12 06:48:44;;;;;;;;;;;;;;;-1.57;44.26;102125.32;1355190;92;20281;-90
2022/03/12 06:51:11;;;;;;;;;;;;;;;-1.38;43.47;102127.98;1368308;89;20306;-90
2022/03/12 06:53:39;;;;;;;;;;;;;;;-1.23;43.27;102110.39;1348557;92;20269;-88
2022/03/12 06:56:07;;;;;;;;;;;;;;;-1.05;44.06;102110.00;1364109;90;20269;-89
2022/03/12 06:58:34;;;;;;;;;;;;;;;-0.87;43.46;102120.89;1357254;92;20298;-86
2022/03/12 07:01:02;;;;;;;;;;;;;;;-0.75;42.63;102123.22;1364535;90;20774;-91
2022/03/12 07:03:29;;;;;;;;;;;;;;;-0.63;42.54;102116.47;1364320;91;20970;-85
2022/03/12 07:06:04;;;;;;;;;;;;;;;-0.59;41.36;102119.39;1374203;91;20266;-81
2022/03/12 07:08:31;;;;;;;;;;;;;;;-0.45;42.10;102119.08;1374611;88;20364;-82
2022/03/12 07:10:58;;;;;;;;;;;;;;;-0.27;42.15;102115.19;1372422;90;20264;-82
2022/03/12 07:13:24;;;;;;;;;;;;;;;-0.23;40.64;102120.74;1370869;90;20777;-82
2022/03/12 07:15:51;;;;;;;;;;;;;;;-0.10;40.38;102113.48;1370060;90;20294;-82
2022/03/12 07:18:18;;;;;;;;;;;;;;;-0.07;40.60;102122.06;1356991;90;20244;-82
2022/03/12 07:20:45;;;;;;;;;;;;;;;0.05;40.48;102126.09;1357273;91;20251;-87
2022/03/12 07:23:12;;;;;;;;;;;;;;;0.26;41.30;102134.25;1372177;90;20264;-87
2022/03/12 07:25:39;;;;;;;;;;;;;;;0.48;41.11;102123.68;1372961;90;21190;-87
2022/03/12 07:28:06;;;;;;;;;;;;;;;0.72;40.66;102122.17;1372734;90;20241;-86
2022/03/12 07:30:33;;;;;;;;;;;;;;;0.84;39.09;102118.36;1372493;90;20241;-87
2022/03/12 07:33:00;;;;;;;;;;;;;;;0.91;38.22;102123.79;1354635;90;20266;-86
2022/03/12 07:35:28;;;;;;;;;;;;;;;1.07;39.65;102122.91;1354183;91;20311;-86
2022/03/12 07:37:55;;;;;;;;;;;;;;;1.20;38.14;102124.23;1354572;91;20758;-86
2022/03/12 07:40:22;;;;;;;;;;;;;;;1.31;38.49;102120.85;1361249;91;20244;-86
2022/03/12 07:42:50;;;;;;;;;;;;;;;1.47;38.45;102123.02;1362281;91;20259;-86
2022/03/12 07:45:17;;;;;;;;;;;;;;;1.70;38.95;102119.22;1358997;91;20249;-87
2022/03/12 07:47:52;;;;;;;;;;;;;;;1.95;37.56;102123.17;1373262;89;20367;-88
2022/03/12 07:50:19;;;;;;;;;;;;;;;2.13;37.97;102117.80;1371392;90;20837;-86
2022/03/12 07:52:46;;;;;;;;;;;;;;;2.31;36.28;102118.08;1360805;90;20787;-86
2022/03/12 07:55:13;;;;;;;;;;;;;;;2.56;36.79;102111.09;1354229;91;20244;-86
2022/03/12 07:57:41;;;;;;;;;;;;;;;2.79;37.27;102106.75;1354435;91;20252;-86
2022/03/12 08:00:10;;;;;;;;;;;;;;;2.95;35.50;102113.13;1363982;91;20293;-86
2022/03/12 08:02:37;;;;;;;;;;;;;;;3.13;34.42;102113.73;1372873;90;20331;-85
2022/03/12 08:05:04;;;;;;;;;;;;;;;3.31;34.29;102107.39;1372450;90;20371;-86
2022/03/12 08:07:33;;;;;;;;;;;;;;;3.38;33.07;102112.34;1377047;89;20262;-86
2022/03/12 08:10:00;;;;;;;;;;;;;;;3.48;34.13;102112.85;1358283;90;20354;-84
2022/03/12 08:12:30;;;;;;;;;;;;;;;3.70;35.00;102114.59;1367028;90;20303;-85
2022/03/12 08:14:57;;;;;;;;;;;;;;;3.88;32.51;102117.76;1367821;90;20770;-87
2022/03/12 08:17:24;;;;;;;;;;;;;;;3.84;32.31;102112.27;1367096;90;20755;-87
2022/03/12 08:19:52;;;;;;;;;;;;;;;3.91;33.10;102108.46;1367688;90;20296;-86
2022/03/12 08:22:18;;;;;;;;;;;;;;;3.70;30.62;102106.73;1367483;90;20281;-87
2022/03/12 08:24:45;;;;;;;;;;;;;;;3.56;29.73;102106.83;1367078;90;20325;-88
2022/03/12 08:27:14;;;;;;;;;;;;;;;3.72;31.40;102108.84;1367346;90;20250;-88
2022/03/12 08:29:43;;;;;;;;;;;;;;;3.93;32.35;102105.33;1367200;90;20250;-88
2022/03/12 08:32:11;;;;;;;;;;;;;;;4.10;33.07;102107.25;1367827;90;20266;-87
2022/03/12 08:34:38;;;;;;;;;;;;;;;4.18;31.20;102100.38;1367677;90;20786;-87
2022/03/12 08:37:05;;;;;;;;;;;;;;;4.25;31.38;102101.80;1367492;90;20258;-85
2022/03/12 08:39:32;;;;;;;;;;;;;;;4.47;32.00;102100.42;1367319;90;20332;-85
2022/03/12 08:41:58;;;;;;;;;;;;;;;4.61;30.49;102099.36;1367075;90;20288;-85
2022/03/12 08:44:25;;;;;;;;;;;;;;;4.63;30.06;102097.53;1374051;90;20232;-84
2022/03/12 08:46:52;;;;;;;;;;;;;;;4.73;31.27;102098.80;1385868;89;20255;-84
2022/03/12 08:49:19;;;;;;;;;;;;;;;4.23;28.20;102091.84;1381595;89;20288;-84
2022/03/12 08:51:46;;;;;;;;;;;;;;;4.39;30.60;102093.34;1367325;90;20289;-84
2022/03/12 08:54:13;;;;;;;;;;;;;;;4.55;30.43;102095.70;1367108;90;20346;-84
2022/03/12 08:56:40;;;;;;;;;;;;;;;4.69;29.79;102092.00;1367343;90;20258;-84
2022/03/12 08:59:07;;;;;;;;;;;;;;;4.91;30.66;102093.64;1367116;90;20421;-84
2022/03/12 09:01:35;;;;;;;;;;;;;;;5.06;28.59;102090.77;1367157;90;20295;-84
2022/03/12 09:04:02;;;;;;;;;;;;;;;5.19;29.93;102097.16;1367513;90;20249;-84
2022/03/12 09:06:32;;;;;;;;;;;;;;;5.36;30.75;102092.42;1367232;90;20306;-84
2022/03/12 09:08:58;;;;;;;;;;;;;;;5.55;30.31;102094.99;1368348;90;20249;-84
2022/03/12 09:11:25;;;;;;;;;;;;;;;5.62;28.24;102095.09;1367143;90;20235;-84
2022/03/12 09:13:53;;;;;;;;;;;;;;;5.74;29.09;102097.58;1367472;90;20235;-84
2022/03/12 09:16:21;;;;;;;;;;;;;;;5.79;28.49;102092.49;1367128;90;20250;-84
2022/03/12 09:18:48;;;;;;;;;;;;;;;5.75;28.47;102086.14;1367335;90;20340;-83
2022/03/12 09:21:15;;;;;;;;;;;;;;;5.79;29.40;102087.23;1370299;89;20265;-83
2022/03/12 09:23:41;;;;;;;;;;;;;;;5.53;27.58;102085.05;1380395;89;20911;-82
2022/03/12 09:26:09;;;;;;;;;;;;;;;5.55;27.34;102085.36;1354600;92;20258;-83
2022/03/12 09:28:36;;;;;;;;;;;;;;;5.49;27.10;102087.41;1367096;90;20265;-82
2022/03/12 09:31:06;;;;;;;;;;;;;;;5.39;27.69;102085.70;1367355;90;20257;-83
2022/03/12 09:33:32;;;;;;;;;;;;;;;5.48;27.56;102089.66;1367192;90;20808;-83
2022/03/12 09:35:59;;;;;;;;;;;;;;;5.60;28.41;102088.59;1367171;90;20318;-82
2022/03/12 09:38:26;;;;;;;;;;;;;;;5.87;28.04;102085.55;1367552;90;20235;-83
2022/03/12 09:40:53;;;;;;;;;;;;;;;6.13;27.83;102081.63;1367547;90;20295;-83
2022/03/12 09:43:20;;;;;;;;;;;;;;;6.41;27.75;102078.88;1369887;90;20836;-83
2022/03/12 09:45:47;;;;;;;;;;;;;;;6.59;27.44;102071.34;1367361;90;20265;-83
2022/03/12 09:48:14;;;;;;;;;;;;;;;6.73;26.23;102074.09;1367336;90;20272;-83
2022/03/12 09:50:47;;;;;;;;;;;;;;;6.72;26.51;102067.11;1371312;90;20292;-84
2022/03/12 09:53:14;;;;;;;;;;;;;;;6.74;26.94;102064.41;1375556;89;20255;-83
2022/03/12 09:55:42;;;;;;;;;;;;;;;6.90;26.84;102063.09;1378945;89;20241;-83
2022/03/12 09:58:09;;;;;;;;;;;;;;;7.09;26.37;102057.67;1371573;89;20300;-84
2022/03/12 10:00:36;;;;;;;;;;;;;;;7.31;26.04;102059.50;1385795;89;20330;-84
2022/03/12 10:03:05;;;;;;;;;;;;;;;7.54;26.09;102060.82;1372725;90;20278;-84
2022/03/12 10:05:33;;;;;;;;;;;;;;;7.71;25.82;102058.53;1383070;89;20332;-84
2022/03/12 10:08:00;;;;;;;;;;;;;;;7.88;26.00;102049.61;1369544;90;20302;-84
2022/03/12 10:10:27;;;;;;;;;;;;;;;7.98;24.69;102052.09;1385961;89;20255;-84
2022/03/12 10:12:54;;;;;;;;;;;;;;;8.07;25.17;102054.17;1386494;89;20351;-84
2022/03/12 10:15:21;;;;;;;;;;;;;;;8.30;24.24;102054.59;1386258;89;20240;-84
2022/03/12 10:17:49;;;;;;;;;;;;;;;8.55;25.79;102046.05;1367240;89;20258;-84
2022/03/12 10:20:17;;;;;;;;;;;;;;;8.55;24.67;102046.90;1367058;90;20288;-83
2022/03/12 10:22:47;;;;;;;;;;;;;;;8.78;23.97;102044.63;1369477;90;20258;-82
2022/03/12 10:25:14;;;;;;;;;;;;;;;8.93;23.69;102041.00;1386728;89;20248;-86
2022/03/12 10:27:43;;;;;;;;;;;;;;;9.18;24.78;102037.64;1384273;89;20270;-83
2022/03/12 10:30:11;;;;;;;;;;;;;;;9.19;23.67;102037.17;1375770;89;20288;-83
2022/03/12 10:32:45;;;;;;;;;;;;;;;9.23;23.60;102033.36;1386259;89;20262;-83
2022/03/12 10:35:18;;;;;;;;;;;;;;;9.48;23.93;102037.42;1384930;89;20247;-83
2022/03/12 10:37:46;;;;;;;;;;;;;;;9.36;22.42;102034.27;1384767;89;20293;-84
2022/03/12 10:40:19;;;;;;;;;;;;;;;9.18;23.57;102031.52;1367353;90;20243;-84
2022/03/12 10:42:49;;;;;;;;;;;;;;;8.45;22.30;102020.69;1367214;90;20377;-85
2022/03/12 10:45:20;;;;;;;;;;;;;;;7.84;22.99;102023.06;1367393;90;20817;-84
2022/03/12 10:47:49;;;;;;;;;;;;;;;7.90;23.20;102012.16;1367141;90;20355;-84
2022/03/12 10:50:19;;;;;;;;;;;;;;;7.74;22.96;102010.91;1367337;90;20273;-83
2022/03/12 10:52:51;;;;;;;;;;;;;;;8.04;24.29;102005.58;1367686;90;20258;-82
2022/03/12 10:55:28;;;;;;;;;;;;;;;8.34;23.03;102003.33;1367176;90;20258;-85
2022/03/12 10:58:16;;;;;;;;;;;;;;;8.05;22.40;102001.15;1367237;90;20347;-82
2022/03/12 11:00:53;;;;;;;;;;;;;;;8.07;22.71;101996.16;1367221;90;20734;-82
2022/03/12 11:03:22;;;;;;;;;;;;;;;8.06;23.16;101983.93;1367602;90;20361;-83
2022/03/12 11:05:50;;;;;;;;;;;;;;;8.45;23.72;101987.70;1367290;90;20250;-83
2022/03/12 11:08:26;;;;;;;;;;;;;;;8.78;22.67;101979.95;1367517;90;20786;-83
2022/03/12 11:11:15;;;;;;;;;;;;;;;8.75;23.48;101975.70;1354564;92;20346;-83
2022/03/12 11:13:47;;;;;;;;;;;;;;;8.49;21.71;101974.72;1367224;90;20787;-83
2022/03/12 11:16:28;;;;;;;;;;;;;;;8.77;22.98;101966.35;1367012;90;20272;-83
2022/03/12 11:19:11;;;;;;;;;;;;;;;9.22;22.18;101965.16;1367250;90;20250;-83
2022/03/12 11:21:52;;;;;;;;;;;;;;;9.34;21.21;101966.14;1367495;90;20764;-83
2022/03/12 11:24:23;;;;;;;;;;;;;;;9.40;21.65;101955.16;1366852;90;20265;-82
2022/03/12 11:26:55;;;;;;;;;;;;;;;9.42;21.21;101951.94;1367529;90;20398;-82
2022/03/12 11:29:24;;;;;;;;;;;;;;;9.45;20.79;101954.38;1366761;90;20250;-83
2022/03/12 11:31:53;;;;;;;;;;;;;;;9.29;21.04;101947.09;1367530;90;20772;-83
2022/03/12 11:34:23;;;;;;;;;;;;;;;9.34;20.80;101939.72;1367902;90;20262;-83
2022/03/12 11:37:05;;;;;;;;;;;;;;;9.10;21.58;101945.32;1367498;90;20251;-82
2022/03/12 11:39:40;;;;;;;;;;;;;;;9.59;21.71;101946.00;1365258;90;20265;-83
2022/03/12 11:42:15;;;;;;;;;;;;;;;9.61;21.37;101937.47;1366923;90;20243;-83
2022/03/12 11:44:47;;;;;;;;;;;;;;;9.98;21.71;101927.01;1367037;90;20242;-83
2022/03/12 11:47:15;;;;;;;;;;;;;;;10.46;21.37;101931.15;1367102;90;20280;-83
2022/03/12 11:49:43;;;;;;;;;;;;;;;10.90;20.74;101919.11;1367074;90;20295;-83
2022/03/12 11:52:10;;;;;;;;;;;;;;;11.42;22.24;101921.83;1367676;90;20377;-83
2022/03/12 11:54:43;;;;;;;;;;;;;;;11.81;19.80;101910.45;1354945;91;20335;-82
2022/03/12 11:57:10;;;;;;;;;;;;;;;11.57;18.33;101917.19;1366909;90;20340;-83
2022/03/12 11:59:38;;;;;;;;;;;;;;;11.34;18.36;101909.66;1367466;90;20235;-83
2022/03/12 12:02:24;;;;;;;;;;;;;;;10.97;18.99;101907.12;1367040;90;20213;-85
2022/03/12 12:04:52;;;;;;;;;;;;;;;11.31;19.79;101908.08;1367336;90;20748;-83
2022/03/12 12:07:22;;;;;;;;;;;;;;;11.36;19.15;101905.91;1367389;90;20332;-85
2022/03/12 12:09:49;;;;;;;;;;;;;;;11.20;19.24;101898.28;1361359;90;20816;-83
2022/03/12 12:12:17;;;;;;;;;;;;;;;11.63;19.58;101895.01;1355365;91;20340;-83
2022/03/12 12:14:44;;;;;;;;;;;;;;;12.07;20.11;101893.84;1355591;91;20236;-83
2022/03/12 12:17:11;;;;;;;;;;;;;;;12.41;19.02;101895.98;1355359;91;20318;-82
2022/03/12 12:19:38;;;;;;;;;;;;;;;12.95;19.37;101899.08;1341374;93;20244;-83
2022/03/12 12:22:08;;;;;;;;;;;;;;;13.20;18.16;101892.53;1355858;91;20288;-83
2022/03/12 12:24:39;;;;;;;;;;;;;;;13.43;17.70;101889.29;1355466;91;20236;-83
2022/03/12 12:27:08;;;;;;;;;;;;;;;13.56;18.02;101895.75;1355863;91;20250;-83
2022/03/12 12:29:44;;;;;;;;;;;;;;;13.46;16.82;101891.69;1355740;91;20251;-83
2022/03/12 12:32:13;;;;;;;;;;;;;;;12.79;16.69;101894.17;1355375;91;20848;-84
2022/03/12 12:34:59;;;;;;;;;;;;;;;12.71;17.42;101893.11;1355330;91;20266;-83
2022/03/12 12:37:45;;;;;;;;;;;;;;;12.54;17.87;101888.69;1341730;93;20341;-83
2022/03/12 12:40:32;;;;;;;;;;;;;;;12.59;18.72;101887.83;1355604;91;20237;-83
2022/03/12 12:43:02;;;;;;;;;;;;;;;12.55;19.39;101895.70;1341185;93;20243;-84
2022/03/12 12:45:33;;;;;;;;;;;;;;;12.32;17.89;101886.10;1355553;91;20757;-84
2022/03/12 12:48:08;;;;;;;;;;;;;;;12.16;17.64;101883.33;1355428;91;20251;-84
2022/03/12 12:50:35;;;;;;;;;;;;;;;12.06;18.21;101883.72;1355554;91;20758;-83